createdAt,value
2022-09-30T00:02:06.834Z,30.30
2022-09-30T00:04:42.772Z,35.70
2022-09-30T00:07:10.758Z,33.60
2022-09-30T00:09:41.433Z,33.10
2022-09-30T00:12:14.048Z,31.00
2022-09-30T00:14:41.813Z,29.90
2022-09-30T00:17:09.995Z,29.90
2022-09-30T00:19:37.989Z,28.00
2022-09-30T00:22:11.416Z,31.10
2022-09-30T00:24:39.714Z,32.00
2022-09-30T00:27:10.030Z,30.90
2022-09-30T00:29:37.963Z,29.50
2022-09-30T00:32:05.885Z,31.40
2022-09-30T00:34:37.761Z,34.30
2022-09-30T00:37:06.222Z,32.30
2022-09-30T00:39:39.171Z,31.60
2022-09-30T00:42:14.396Z,31.30
2022-09-30T00:44:46.407Z,30.30
2022-09-30T00:49:56.151Z,29.80
2022-09-30T00:52:24.751Z,29.50
2022-09-30T00:54:57.630Z,31.90
2022-09-30T00:57:26.539Z,29.80
2022-09-30T00:59:54.945Z,31.00
2022-09-30T01:02:25.551Z,34.30
2022-09-30T01:04:54.963Z,33.10
2022-09-30T01:07:28.335Z,30.30
2022-09-30T01:10:01.292Z,32.00
2022-09-30T01:12:30.211Z,29.30
2022-09-30T01:15:05.142Z,29.70
2022-09-30T01:18:02.672Z,31.00
2022-09-30T01:20:44.803Z,29.00
2022-09-30T01:23:27.989Z,28.90
2022-09-30T01:26:31.059Z,31.40
2022-09-30T01:29:26.793Z,30.70
2022-09-30T01:32:32.562Z,29.70
2022-09-30T01:35:11.210Z,30.00
2022-09-30T01:38:17.844Z,28.60
2022-09-30T01:41:14.286Z,29.60
2022-09-30T01:44:03.287Z,28.80
2022-09-30T01:46:44.797Z,31.20
2022-09-30T01:49:28.577Z,30.60
2022-09-30T01:54:57.451Z,32.10
2022-09-30T01:57:37.744Z,29.60
2022-09-30T02:00:15.434Z,31.70
2022-09-30T02:02:55.085Z,31.70
2022-09-30T02:05:31.962Z,31.20
2022-09-30T02:08:09.611Z,31.80
2022-09-30T02:10:48.696Z,31.20
2022-09-30T02:13:25.236Z,29.80
2022-09-30T02:15:59.907Z,30.30
2022-09-30T02:18:35.182Z,33.30
2022-09-30T02:21:06.986Z,30.00
2022-09-30T02:23:42.626Z,36.30
2022-09-30T02:26:25.405Z,31.60
2022-09-30T02:29:13.476Z,33.30
2022-09-30T02:31:45.452Z,36.50
2022-09-30T02:34:22.584Z,34.40
2022-09-30T02:37:32.072Z,40.10
2022-09-30T02:40:21.450Z,37.70
2022-09-30T02:42:53.503Z,39.10
2022-09-30T02:45:25.772Z,40.10
2022-09-30T02:48:15.449Z,36.10
2022-09-30T02:50:52.225Z,41.30
2022-09-30T02:53:26.019Z,36.90
2022-09-30T02:56:12.504Z,36.20
2022-09-30T02:58:46.451Z,40.90
2022-09-30T03:01:19.116Z,38.90
2022-09-30T03:04:02.001Z,44.40
2022-09-30T03:06:34.201Z,36.30
2022-09-30T03:09:05.619Z,40.20
2022-09-30T03:11:37.429Z,42.90
2022-09-30T03:14:35.382Z,47.70
2022-09-30T03:17:41.990Z,41.50
2022-09-30T03:20:42.047Z,42.60
2022-09-30T03:23:44.487Z,42.00
2022-09-30T03:26:44.116Z,39.60
2022-09-30T03:29:25.087Z,46.10
2022-09-30T03:32:00.443Z,46.50
2022-09-30T03:35:03.676Z,45.80
2022-09-30T03:37:58.692Z,42.90
2022-09-30T03:40:56.243Z,41.10
2022-09-30T03:43:51.453Z,49.40
2022-09-30T03:46:31.677Z,46.60
2022-09-30T03:49:08.665Z,45.30
2022-09-30T03:51:44.483Z,47.90
2022-09-30T03:54:17.115Z,48.70
2022-09-30T03:56:46.132Z,47.40
2022-09-30T03:59:30.809Z,48.20
2022-09-30T04:01:58.811Z,44.30
2022-09-30T04:04:30.290Z,46.40
2022-09-30T04:06:59.281Z,45.90
2022-09-30T04:09:29.168Z,45.80
2022-09-30T04:11:57.327Z,43.90
2022-09-30T04:14:25.247Z,47.10
2022-09-30T04:16:54.189Z,49.30
2022-09-30T04:19:22.027Z,47.30
2022-09-30T04:21:55.123Z,47.20
2022-09-30T04:24:24.607Z,47.20
2022-09-30T04:26:52.636Z,46.90
2022-09-30T04:29:23.238Z,49.10
2022-09-30T04:31:54.019Z,47.70
2022-09-30T04:34:23.229Z,50.30
2022-09-30T04:36:57.861Z,49.40
2022-09-30T04:39:25.826Z,47.40
2022-09-30T04:41:57.995Z,41.90
2022-09-30T04:44:28.082Z,43.10
2022-09-30T04:46:55.741Z,44.30
2022-09-30T04:49:27.600Z,46.60
2022-09-30T04:51:59.603Z,43.90
2022-09-30T04:54:27.507Z,42.20
2022-09-30T04:56:56.006Z,42.60
2022-09-30T04:59:23.803Z,42.80
2022-09-30T05:01:54.575Z,42.10
2022-09-30T05:04:23.242Z,43.00
2022-09-30T05:06:52.313Z,39.20
2022-09-30T05:09:20.905Z,41.00
2022-09-30T05:11:52.751Z,39.00
2022-09-30T05:14:23.434Z,40.00
2022-09-30T05:16:51.297Z,43.10
2022-09-30T05:19:21.018Z,38.60
2022-09-30T05:21:48.837Z,40.30
2022-09-30T05:24:23.039Z,43.40
2022-09-30T05:26:54.911Z,36.80
2022-09-30T05:29:22.950Z,40.10
2022-09-30T05:31:52.067Z,38.70
2022-09-30T05:34:21.516Z,38.70
2022-09-30T05:36:50.829Z,36.10
2022-09-30T05:39:18.879Z,38.80
2022-09-30T05:41:50.737Z,37.40
2022-09-30T05:44:21.789Z,35.00
2022-09-30T05:46:49.860Z,38.20
2022-09-30T05:49:20.338Z,35.00
2022-09-30T05:51:48.532Z,34.70
2022-09-30T05:54:16.443Z,35.40
2022-09-30T05:56:46.947Z,34.90
2022-09-30T05:59:17.456Z,32.80
2022-09-30T06:01:49.761Z,34.30
2022-09-30T06:04:21.967Z,35.20
2022-09-30T06:06:50.045Z,31.70
2022-09-30T06:09:22.343Z,32.30
2022-09-30T06:11:50.299Z,31.20
2022-09-30T06:14:23.874Z,30.90
2022-09-30T06:16:51.793Z,30.20
2022-09-30T06:19:24.079Z,31.80
2022-09-30T06:21:52.007Z,27.80
2022-09-30T06:24:24.914Z,26.70
2022-09-30T06:26:53.101Z,29.30
2022-09-30T06:29:23.500Z,28.00
2022-09-30T06:31:55.551Z,27.30
2022-09-30T06:34:27.233Z,30.60
2022-09-30T06:36:55.189Z,28.20
2022-09-30T06:39:23.099Z,28.00
2022-09-30T06:41:51.500Z,28.30
2022-09-30T06:44:19.386Z,24.70
2022-09-30T06:46:53.626Z,25.30
2022-09-30T06:49:24.010Z,25.10
2022-09-30T06:51:52.671Z,26.30
2022-09-30T06:54:23.191Z,25.40
2022-09-30T06:56:53.869Z,24.20
2022-09-30T06:59:23.428Z,24.90
2022-09-30T07:01:57.210Z,23.50
2022-09-30T07:04:26.273Z,24.40
2022-09-30T07:06:59.423Z,22.00
2022-09-30T07:09:27.561Z,22.50
2022-09-30T07:11:59.087Z,23.80
2022-09-30T07:14:34.412Z,21.60
2022-09-30T07:17:08.655Z,22.10
2022-09-30T07:19:36.409Z,20.50
2022-09-30T07:22:22.998Z,18.40
2022-09-30T07:24:58.380Z,20.80
2022-09-30T07:27:32.676Z,20.00
2022-09-30T07:30:09.528Z,20.80
2022-09-30T07:32:46.444Z,23.00
2022-09-30T07:35:14.805Z,19.60
2022-09-30T07:37:50.335Z,19.00
2022-09-30T07:40:18.368Z,20.50
2022-09-30T07:42:48.877Z,21.60
2022-09-30T07:45:23.579Z,21.90
2022-09-30T07:47:56.169Z,18.60
2022-09-30T07:50:24.194Z,15.00
2022-09-30T07:52:57.528Z,15.00
2022-09-30T07:55:25.458Z,16.60
2022-09-30T07:57:54.385Z,15.50
2022-09-30T08:00:41.679Z,12.70
2022-09-30T08:03:11.446Z,13.60
2022-09-30T08:05:52.770Z,13.20
2022-09-30T08:08:20.577Z,14.00
2022-09-30T08:10:52.513Z,10.50
2022-09-30T08:13:22.833Z,9.50
2022-09-30T08:15:50.742Z,11.50
2022-09-30T08:18:25.512Z,10.60
2022-09-30T08:20:57.843Z,10.40
2022-09-30T08:23:32.201Z,8.80
2022-09-30T08:26:08.783Z,8.90
2022-09-30T08:28:41.401Z,9.00
2022-09-30T08:31:19.764Z,10.30
2022-09-30T08:33:48.919Z,9.80
2022-09-30T08:36:27.231Z,8.70
2022-09-30T08:38:55.183Z,9.00
2022-09-30T08:41:43.950Z,12.70
2022-09-30T08:44:33.220Z,14.40
2022-09-30T08:47:48.232Z,16.30
2022-09-30T08:50:31.463Z,14.00
2022-09-30T08:53:08.978Z,11.70
2022-09-30T08:55:45.649Z,11.40
2022-09-30T08:58:31.923Z,9.40
2022-09-30T09:01:37.346Z,9.60
2022-09-30T09:04:09.072Z,10.60
2022-09-30T09:07:12.012Z,13.70
2022-09-30T09:09:59.967Z,10.50
2022-09-30T09:13:05.462Z,11.70
2022-09-30T09:15:42.456Z,9.80
2022-09-30T09:18:34.863Z,12.90
2022-09-30T09:21:26.265Z,13.00
2022-09-30T09:24:01.205Z,16.30
2022-09-30T09:26:38.990Z,16.80
2022-09-30T09:29:15.632Z,17.20
2022-09-30T09:31:43.817Z,15.30
2022-09-30T09:34:20.026Z,15.50
2022-09-30T09:37:18.989Z,11.00
2022-09-30T09:40:04.731Z,12.80
2022-09-30T09:42:56.607Z,12.00
2022-09-30T09:46:13.594Z,10.20
2022-09-30T09:48:41.369Z,10.30
2022-09-30T09:51:38.753Z,11.90
2022-09-30T09:54:16.922Z,11.00
2022-09-30T09:56:44.776Z,11.70
2022-09-30T09:59:22.309Z,12.80
2022-09-30T10:01:56.457Z,16.10
2022-09-30T10:04:33.221Z,11.00
2022-09-30T10:07:19.069Z,13.00
2022-09-30T10:09:47.061Z,12.70
2022-09-30T10:12:14.933Z,13.50
2022-09-30T10:15:03.963Z,14.30
2022-09-30T10:17:37.814Z,13.90
2022-09-30T10:20:27.771Z,13.80
2022-09-30T10:23:22.548Z,14.80
2022-09-30T10:26:08.467Z,11.70
2022-09-30T10:28:46.999Z,10.30
2022-09-30T10:31:23.884Z,12.70
2022-09-30T10:34:23.578Z,11.70
2022-09-30T10:36:57.466Z,14.20
2022-09-30T10:39:40.367Z,13.20
2022-09-30T10:42:29.539Z,14.00
2022-09-30T10:45:14.206Z,13.60
2022-09-30T10:47:52.291Z,14.90
2022-09-30T10:50:27.847Z,14.50
2022-09-30T10:53:14.350Z,14.90
2022-09-30T10:55:47.542Z,14.80
2022-09-30T10:58:52.507Z,15.70
2022-09-30T11:01:26.512Z,16.70
2022-09-30T11:04:06.317Z,18.50
2022-09-30T11:06:44.148Z,16.80
2022-09-30T11:09:26.214Z,17.50
2022-09-30T11:12:05.531Z,19.00
2022-09-30T11:14:46.035Z,21.80
2022-09-30T11:17:42.908Z,23.10
2022-09-30T11:20:33.431Z,24.20
2022-09-30T11:23:10.247Z,24.60
2022-09-30T11:26:07.928Z,24.00
2022-09-30T11:29:12.948Z,24.90
2022-09-30T11:32:18.114Z,25.60
2022-09-30T11:35:07.561Z,23.40
2022-09-30T11:37:47.761Z,25.30
2022-09-30T11:40:39.032Z,22.30
2022-09-30T11:43:25.606Z,22.30
2022-09-30T11:46:19.201Z,25.60
2022-09-30T11:49:28.321Z,24.30
2022-09-30T11:52:14.889Z,25.00
2022-09-30T11:55:32.016Z,23.60
2022-09-30T11:58:36.217Z,25.20
2022-09-30T12:01:21.859Z,27.30
2022-09-30T12:04:10.362Z,25.40
2022-09-30T12:06:57.879Z,25.80
2022-09-30T12:09:46.508Z,26.90
2022-09-30T12:12:20.993Z,28.20
2022-09-30T12:15:07.659Z,28.10
2022-09-30T12:17:51.114Z,27.00
2022-09-30T12:20:32.373Z,27.30
2022-09-30T12:23:30.570Z,28.50
2022-09-30T12:26:07.591Z,27.70
2022-09-30T12:29:05.781Z,26.70
2022-09-30T12:32:01.374Z,27.00
2022-09-30T12:34:52.582Z,31.00
2022-09-30T12:37:56.336Z,29.80
2022-09-30T12:40:57.709Z,28.30
2022-09-30T12:44:06.223Z,27.30
2022-09-30T12:47:08.346Z,28.00
2022-09-30T12:49:42.282Z,25.20
2022-09-30T12:52:21.574Z,27.50
2022-09-30T12:54:52.441Z,28.30
2022-09-30T12:57:26.595Z,27.60
2022-09-30T12:59:58.160Z,26.50
2022-09-30T13:02:36.605Z,24.30
2022-09-30T13:05:27.846Z,25.70
2022-09-30T13:08:05.334Z,26.90
2022-09-30T13:10:40.101Z,25.60
2022-09-30T13:13:10.532Z,23.60
2022-09-30T13:15:46.702Z,23.50
2022-09-30T13:18:20.809Z,26.40
2022-09-30T13:21:08.299Z,23.40
2022-09-30T13:23:53.302Z,25.10
2022-09-30T13:26:32.134Z,24.10
2022-09-30T13:29:04.320Z,25.50
2022-09-30T13:31:46.299Z,25.30
2022-09-30T13:34:35.588Z,25.00
2022-09-30T13:37:06.403Z,31.70
2022-09-30T13:39:34.247Z,27.00
2022-09-30T13:42:22.306Z,26.90
2022-09-30T13:45:08.546Z,29.60
2022-09-30T13:48:02.464Z,28.00
2022-09-30T13:50:34.602Z,28.10
2022-09-30T13:53:13.130Z,31.50
2022-09-30T13:55:51.117Z,29.70
2022-09-30T13:58:30.971Z,27.20
2022-09-30T14:01:19.357Z,27.70
2022-09-30T14:03:51.159Z,22.50
2022-09-30T14:06:54.496Z,21.80
2022-09-30T14:10:08.382Z,20.90
2022-09-30T14:12:48.882Z,23.30
2022-09-30T14:15:40.593Z,23.60
2022-09-30T14:18:48.344Z,21.80
2022-09-30T14:21:48.423Z,21.60
2022-09-30T14:24:24.793Z,20.90
2022-09-30T14:27:00.251Z,20.60
2022-09-30T14:29:59.394Z,21.80
2022-09-30T14:32:30.576Z,21.60
2022-09-30T14:35:06.431Z,22.50
2022-09-30T14:37:51.666Z,22.70
2022-09-30T14:40:32.079Z,21.20
2022-09-30T14:43:18.318Z,19.20
2022-09-30T14:45:54.147Z,18.70
2022-09-30T14:48:31.920Z,19.20
2022-09-30T14:51:22.705Z,20.10
2022-09-30T14:54:04.492Z,21.50
2022-09-30T14:56:41.977Z,22.30
2022-09-30T14:59:20.692Z,24.20
2022-09-30T15:02:04.116Z,26.40
2022-09-30T15:04:43.336Z,27.80
2022-09-30T15:07:16.188Z,24.70
2022-09-30T15:09:50.278Z,24.00
2022-09-30T15:12:28.729Z,28.10
2022-09-30T15:15:01.765Z,22.80
2022-09-30T15:17:37.717Z,22.60
2022-09-30T15:20:24.277Z,21.00
2022-09-30T15:22:56.601Z,21.90
2022-09-30T15:25:29.692Z,21.50
2022-09-30T15:28:02.065Z,21.80
2022-09-30T15:30:29.951Z,19.90
2022-09-30T15:33:07.577Z,20.80
2022-09-30T15:35:35.562Z,18.10
2022-09-30T15:38:17.471Z,17.50
2022-09-30T15:41:03.337Z,18.90
2022-09-30T15:43:51.719Z,18.70
2022-09-30T15:46:28.488Z,18.40
2022-09-30T15:49:31.457Z,15.80
2022-09-30T15:52:40.539Z,20.70
2022-09-30T15:55:36.371Z,19.70
2022-09-30T15:58:26.956Z,19.50
2022-09-30T16:01:19.574Z,22.20
2022-09-30T16:03:59.484Z,20.00
2022-09-30T16:06:36.507Z,21.60
2022-09-30T16:09:34.081Z,20.20
2022-09-30T16:12:13.676Z,19.70
2022-09-30T16:14:58.095Z,19.40
2022-09-30T16:17:29.188Z,17.10
2022-09-30T16:20:25.892Z,16.20
2022-09-30T16:23:01.651Z,17.20
2022-09-30T16:25:35.131Z,18.60
2022-09-30T16:28:14.540Z,18.60
2022-09-30T16:30:51.865Z,16.60
2022-09-30T16:33:24.067Z,14.70
2022-09-30T16:35:56.132Z,12.30
2022-09-30T16:38:24.068Z,10.80
2022-09-30T16:40:51.808Z,11.30
2022-09-30T16:43:27.674Z,13.30
2022-09-30T16:46:02.378Z,15.90
2022-09-30T16:48:30.148Z,17.60
2022-09-30T16:51:20.827Z,16.60
2022-09-30T16:53:48.597Z,16.70
2022-09-30T16:56:25.039Z,16.10
2022-09-30T16:58:53.051Z,15.00
2022-09-30T17:01:28.677Z,19.00
2022-09-30T17:04:01.745Z,20.10
2022-09-30T17:06:36.060Z,18.00
2022-09-30T17:09:08.981Z,15.30
2022-09-30T17:11:42.187Z,15.00
2022-09-30T17:14:09.868Z,14.90
2022-09-30T17:16:42.409Z,15.10
2022-09-30T17:19:12.776Z,16.10
2022-09-30T17:21:40.715Z,14.60
2022-09-30T17:24:08.685Z,17.70
2022-09-30T17:26:43.571Z,18.20
2022-09-30T17:29:33.067Z,18.80
2022-09-30T17:32:08.123Z,18.10
2022-09-30T17:34:35.890Z,17.20
2022-09-30T17:37:03.707Z,17.90
2022-09-30T17:39:32.204Z,18.20
2022-09-30T17:42:22.726Z,19.30
2022-09-30T17:44:55.564Z,18.90
2022-09-30T17:47:28.139Z,18.70
2022-09-30T17:49:56.251Z,21.30
2022-09-30T17:52:38.530Z,21.10
2022-09-30T17:55:06.677Z,20.10
2022-09-30T17:57:39.977Z,18.70
2022-09-30T18:00:12.712Z,18.40
2022-09-30T18:02:42.802Z,19.10
2022-09-30T18:05:14.895Z,19.80
2022-09-30T18:07:43.253Z,19.70
2022-09-30T18:10:15.490Z,20.60
2022-09-30T18:12:43.176Z,20.50
2022-09-30T18:15:14.024Z,17.70
2022-09-30T18:17:46.052Z,17.50
2022-09-30T18:20:20.716Z,18.00
2022-09-30T18:22:55.406Z,15.40
2022-09-30T18:25:27.718Z,14.40
2022-09-30T18:28:03.229Z,14.80
2022-09-30T18:30:31.201Z,14.00
2022-09-30T18:33:07.266Z,13.40
2022-09-30T18:35:40.027Z,12.60
2022-09-30T18:38:07.768Z,15.30
2022-09-30T18:40:36.361Z,12.50
2022-09-30T18:43:06.710Z,13.20
2022-09-30T18:45:40.320Z,15.00
2022-09-30T18:48:12.158Z,13.70
2022-09-30T18:50:40.212Z,11.90
2022-09-30T18:53:13.006Z,13.80
2022-09-30T18:55:48.147Z,14.90
2022-09-30T18:58:18.303Z,15.10
2022-09-30T19:00:47.036Z,15.30
2022-09-30T19:03:23.274Z,12.90
2022-09-30T19:05:50.906Z,11.60
2022-09-30T19:08:18.816Z,14.70
2022-09-30T19:10:54.744Z,12.40
2022-09-30T19:13:29.375Z,14.20
2022-09-30T19:16:06.521Z,14.40
2022-09-30T19:18:38.673Z,15.60
2022-09-30T19:21:13.271Z,17.70
2022-09-30T19:23:48.440Z,15.60
2022-09-30T19:26:16.196Z,16.10
2022-09-30T19:28:46.551Z,16.90
2022-09-30T19:31:21.673Z,16.90
2022-09-30T19:33:57.138Z,17.60
2022-09-30T19:36:31.896Z,18.80
2022-09-30T19:39:12.362Z,18.40
2022-09-30T19:41:44.632Z,19.00
2022-09-30T19:44:20.863Z,19.10
2022-09-30T19:46:54.947Z,18.60
2022-09-30T19:49:27.921Z,17.30
2022-09-30T19:51:55.788Z,19.60
2022-09-30T19:54:39.772Z,17.50
2022-09-30T19:57:17.486Z,17.50
2022-09-30T19:59:45.500Z,18.50
2022-09-30T20:02:17.284Z,17.10
2022-09-30T20:04:48.885Z,17.90
2022-09-30T20:07:16.601Z,17.90
2022-09-30T20:09:48.777Z,20.00
2022-09-30T20:12:16.680Z,18.80
2022-09-30T20:15:07.485Z,18.90
2022-09-30T20:17:41.917Z,18.70
2022-09-30T20:20:28.472Z,18.60
2022-09-30T20:23:06.026Z,19.40
2022-09-30T20:25:39.423Z,20.30
2022-09-30T20:28:11.730Z,19.90
2022-09-30T20:30:47.983Z,24.90
2022-09-30T20:33:24.639Z,20.60
2022-09-30T20:35:59.321Z,21.90
2022-09-30T20:38:27.261Z,21.00
2022-09-30T20:41:03.517Z,21.50
2022-09-30T20:43:36.754Z,21.10
2022-09-30T20:46:09.960Z,21.30
2022-09-30T20:48:42.688Z,19.40
2022-09-30T20:51:20.232Z,22.70
2022-09-30T20:53:56.932Z,20.10
2022-09-30T20:56:39.308Z,20.50
2022-09-30T20:59:20.842Z,20.00
2022-09-30T21:01:48.624Z,19.70
2022-09-30T21:04:19.277Z,20.20
2022-09-30T21:06:48.034Z,20.70
2022-09-30T21:09:17.945Z,21.50
2022-09-30T21:11:45.919Z,20.50
2022-09-30T21:14:20.904Z,19.30
2022-09-30T21:16:48.672Z,20.90
2022-09-30T21:19:25.759Z,20.60
2022-09-30T21:22:00.036Z,18.30
2022-09-30T21:24:28.593Z,17.70
2022-09-30T21:26:56.522Z,16.10
2022-09-30T21:29:24.427Z,14.50
2022-09-30T21:31:53.069Z,16.30
2022-09-30T21:34:22.390Z,16.30
2022-09-30T21:36:50.203Z,15.10
2022-09-30T21:39:17.932Z,14.10
2022-09-30T21:41:47.260Z,14.90
2022-09-30T21:44:16.461Z,15.60
2022-09-30T21:46:48.636Z,17.40
2022-09-30T21:51:50.693Z,18.00
2022-09-30T21:54:21.251Z,17.50
2022-09-30T21:56:50.804Z,19.80
2022-09-30T21:59:19.719Z,20.00
2022-09-30T22:01:48.945Z,20.20
2022-09-30T22:04:17.599Z,18.50
2022-09-30T22:06:48.067Z,19.60
2022-09-30T22:09:16.967Z,19.90
2022-09-30T22:11:44.911Z,19.30
2022-09-30T22:14:12.842Z,23.60
2022-09-30T22:16:42.092Z,22.60
2022-09-30T22:19:15.744Z,21.40
2022-09-30T22:21:43.651Z,19.70
2022-09-30T22:24:11.742Z,21.90
2022-09-30T22:26:42.337Z,21.80
2022-09-30T22:29:12.733Z,21.70
2022-09-30T22:31:40.712Z,20.30
2022-09-30T22:34:33.893Z,21.60
2022-09-30T22:37:21.485Z,22.90
2022-09-30T22:39:49.139Z,21.00
2022-09-30T22:42:19.098Z,20.80
2022-09-30T22:44:49.521Z,22.90
2022-09-30T22:47:17.431Z,23.70
2022-09-30T22:49:48.019Z,30.50
2022-09-30T22:52:16.192Z,29.40
2022-09-30T22:54:45.796Z,21.90
2022-09-30T22:57:13.779Z,22.10
2022-09-30T22:59:44.357Z,24.20
2022-09-30T23:02:12.322Z,23.10
2022-09-30T23:04:42.537Z,23.30
2022-09-30T23:07:11.872Z,22.90
2022-09-30T23:09:41.060Z,21.50
2022-09-30T23:12:10.765Z,22.90
2022-09-30T23:14:40.094Z,22.70
2022-09-30T23:17:08.063Z,22.70
2022-09-30T23:19:37.257Z,24.80
2022-09-30T23:22:06.166Z,27.10
2022-09-30T23:24:34.189Z,22.90
2022-09-30T23:27:03.522Z,21.90
2022-09-30T23:29:32.688Z,23.90
2022-09-30T23:32:00.889Z,23.60
2022-09-30T23:34:32.530Z,26.80
2022-09-30T23:37:01.503Z,23.50
2022-09-30T23:39:32.136Z,24.90
2022-09-30T23:42:00.055Z,24.30
2022-09-30T23:44:28.692Z,24.60
2022-09-30T23:47:16.163Z,23.70
2022-09-30T23:49:43.920Z,22.60
2022-09-30T23:52:15.054Z,24.90
2022-09-30T23:54:44.591Z,24.80
2022-09-30T23:57:13.879Z,25.40
2022-09-30T23:59:41.714Z,24.80
